createdAt,value
2022-12-23T00:01:24.160Z,96347.69
2022-12-23T00:03:51.357Z,96361.56
2022-12-23T00:06:19.148Z,96367.34
2022-12-23T00:08:46.884Z,96357.19
2022-12-23T00:11:19.898Z,96357.81
2022-12-23T00:14:05.582Z,96374.69
2022-12-23T00:16:35.293Z,96379.25
2022-12-23T00:19:01.800Z,96356.69
2022-12-23T00:21:28.334Z,96363.22
2022-12-23T00:23:54.807Z,96369.41
2022-12-23T00:26:26.599Z,96369.59
2022-12-23T00:28:56.118Z,96370.56
2022-12-23T00:31:22.774Z,96370.44
2022-12-23T00:33:51.040Z,96374.31
2022-12-23T00:36:24.345Z,96364.94
2022-12-23T00:39:10.235Z,96373.16
2022-12-23T00:41:55.541Z,96369.56
2022-12-23T00:44:22.203Z,96375.13
2022-12-23T00:46:49.014Z,96374.06
2022-12-23T00:49:36.166Z,96372.63
2022-12-23T00:52:04.301Z,96366.69
2022-12-23T00:54:31.924Z,96369.38
2022-12-23T00:56:59.828Z,96385.81
2022-12-23T00:59:26.751Z,96375.59
2022-12-23T01:02:12.188Z,96380.22
2022-12-23T01:04:57.559Z,96375.16
2022-12-23T01:07:24.402Z,96391.06
2022-12-23T01:09:50.887Z,96386.38
2022-12-23T01:12:17.479Z,96383.06
2022-12-23T01:14:44.148Z,96374.63
2022-12-23T01:17:10.942Z,96360.97
2022-12-23T01:19:37.545Z,96371.75
2022-12-23T01:22:04.022Z,96374.06
2022-12-23T01:24:31.754Z,96378.16
2022-12-23T01:26:58.941Z,96387.06
2022-12-23T01:29:25.514Z,96369.50
2022-12-23T01:31:52.062Z,96351.28
2022-12-23T01:34:18.672Z,96350.31
2022-12-23T01:36:45.101Z,96356.13
2022-12-23T01:39:11.698Z,96361.97
2022-12-23T01:41:56.829Z,96357.78
2022-12-23T01:44:47.930Z,96354.28
2022-12-23T01:47:34.917Z,96367.47
2022-12-23T01:50:24.650Z,96364.81
2022-12-23T01:53:12.714Z,96365.84
2022-12-23T01:55:49.736Z,96357.25
2022-12-23T01:58:31.641Z,96362.50
2022-12-23T02:01:17.709Z,96350.41
2022-12-23T02:03:46.563Z,96358.28
2022-12-23T02:06:37.319Z,96361.06
2022-12-23T02:09:17.409Z,96365.84
2022-12-23T02:11:55.353Z,96350.00
2022-12-23T02:14:59.052Z,96346.69
2022-12-23T02:17:32.576Z,96359.53
2022-12-23T02:20:27.231Z,96353.63
2022-12-23T02:23:12.033Z,96357.13
2022-12-23T02:25:54.509Z,96354.59
2022-12-23T02:28:55.964Z,96346.63
2022-12-23T02:31:34.315Z,96338.06
2022-12-23T02:34:11.002Z,96339.53
2022-12-23T02:37:05.436Z,96358.63
2022-12-23T02:39:42.386Z,96355.28
2022-12-23T02:42:17.071Z,96364.94
2022-12-23T02:45:05.974Z,96358.06
2022-12-23T02:47:37.835Z,96359.81
2022-12-23T02:50:18.379Z,96365.03
2022-12-23T02:52:48.105Z,96354.88
2022-12-23T02:55:21.572Z,96349.16
2022-12-23T02:57:52.357Z,96353.91
2022-12-23T03:00:19.472Z,96344.59
2022-12-23T03:02:46.583Z,96338.09
2022-12-23T03:05:41.666Z,96337.78
2022-12-23T03:08:15.320Z,96332.28
2022-12-23T03:11:17.385Z,96332.06
2022-12-23T03:13:55.481Z,96313.03
2022-12-23T03:16:22.053Z,96319.03
2022-12-23T03:18:57.847Z,96328.88
2022-12-23T03:21:43.061Z,96333.16
2022-12-23T03:24:20.952Z,96341.88
2022-12-23T03:27:12.513Z,96321.31
2022-12-23T03:29:46.467Z,96316.66
2022-12-23T03:32:15.768Z,96317.94
2022-12-23T03:34:47.449Z,96339.75
2022-12-23T03:37:15.896Z,96331.94
2022-12-23T03:39:48.308Z,96340.78
2022-12-23T03:42:24.840Z,96328.78
2022-12-23T03:45:27.870Z,96349.94
2022-12-23T03:47:46.727Z,96323.84
2022-12-23T03:50:17.376Z,96328.69
2022-12-23T03:52:50.963Z,96327.78
2022-12-23T03:55:22.985Z,96319.69
2022-12-23T03:58:09.913Z,96313.16
2022-12-23T04:00:44.285Z,96309.44
2022-12-23T04:03:29.385Z,96304.78
2022-12-23T04:06:01.666Z,96314.50
2022-12-23T04:08:36.768Z,96310.75
2022-12-23T04:11:04.263Z,96319.09
2022-12-23T04:13:31.876Z,96291.84
2022-12-23T04:15:59.707Z,96290.00
2022-12-23T04:18:26.296Z,96299.34
2022-12-23T04:20:52.754Z,96324.22
2022-12-23T04:23:19.295Z,96310.97
2022-12-23T04:25:45.804Z,96323.53
2022-12-23T04:28:12.219Z,96320.38
2022-12-23T04:30:38.892Z,96317.19
2022-12-23T04:33:05.604Z,96314.03
2022-12-23T04:35:32.061Z,96316.94
2022-12-23T04:37:58.614Z,96311.19
2022-12-23T04:40:25.203Z,96300.34
2022-12-23T04:42:51.732Z,96302.31
2022-12-23T04:45:18.207Z,96305.81
2022-12-23T04:47:44.707Z,96312.03
2022-12-23T04:50:15.347Z,96300.78
2022-12-23T04:52:43.054Z,96305.44
2022-12-23T04:55:13.607Z,96298.44
2022-12-23T04:57:40.195Z,96290.72
2022-12-23T05:00:07.163Z,96294.13
2022-12-23T05:02:33.878Z,96294.28
2022-12-23T05:05:00.371Z,96290.22
2022-12-23T05:07:26.871Z,96287.25
2022-12-23T05:09:53.414Z,96299.69
2022-12-23T05:12:20.028Z,96306.16
2022-12-23T05:14:47.182Z,96304.91
2022-12-23T05:17:13.657Z,96306.91
2022-12-23T05:19:40.209Z,96307.16
2022-12-23T05:22:06.836Z,96306.47
2022-12-23T05:24:33.324Z,96310.38
2022-12-23T05:27:00.631Z,96311.06
2022-12-23T05:29:27.654Z,96317.16
2022-12-23T05:31:54.356Z,96311.41
2022-12-23T05:34:21.127Z,96322.16
2022-12-23T05:36:47.590Z,96326.16
2022-12-23T05:39:14.207Z,96327.97
2022-12-23T05:41:40.773Z,96324.13
2022-12-23T05:44:07.285Z,96324.38
2022-12-23T05:46:34.016Z,96326.16
2022-12-23T05:49:00.586Z,96332.06
2022-12-23T05:51:27.135Z,96327.63
2022-12-23T05:53:53.678Z,96336.16
2022-12-23T05:56:20.126Z,96333.22
2022-12-23T05:58:46.606Z,96334.94
2022-12-23T06:01:14.373Z,96338.41
2022-12-23T06:03:41.102Z,96337.16
2022-12-23T06:06:08.314Z,96356.50
2022-12-23T06:08:34.831Z,96358.78
2022-12-23T06:11:04.679Z,96368.47
2022-12-23T06:13:31.091Z,96360.25
2022-12-23T06:15:57.582Z,96362.75
2022-12-23T06:18:24.027Z,96363.03
2022-12-23T06:20:50.510Z,96361.00
2022-12-23T06:23:16.963Z,96357.06
2022-12-23T06:25:43.491Z,96365.84
2022-12-23T06:28:09.974Z,96369.38
2022-12-23T06:30:36.447Z,96369.16
2022-12-23T06:33:02.986Z,96368.69
2022-12-23T06:35:29.527Z,96378.25
2022-12-23T06:37:55.956Z,96383.78
2022-12-23T06:40:22.445Z,96372.50
2022-12-23T06:42:48.887Z,96372.44
2022-12-23T06:45:15.460Z,96369.59
2022-12-23T06:47:41.994Z,96372.97
2022-12-23T06:50:09.272Z,96373.59
2022-12-23T06:52:35.730Z,96369.63
2022-12-23T06:55:02.213Z,96368.31
2022-12-23T06:57:28.642Z,96374.47
2022-12-23T06:59:55.260Z,96371.03
2022-12-23T07:02:21.895Z,96374.59
2022-12-23T07:04:48.503Z,96382.06
2022-12-23T07:07:14.971Z,96377.31
2022-12-23T07:09:41.406Z,96394.44
2022-12-23T07:12:07.894Z,96402.84
2022-12-23T07:14:34.282Z,96403.31
2022-12-23T07:17:00.844Z,96416.03
2022-12-23T07:19:27.394Z,96410.03
2022-12-23T07:21:53.968Z,96401.81
2022-12-23T07:24:20.528Z,96407.03
2022-12-23T07:26:47.023Z,96404.00
2022-12-23T07:29:13.502Z,96406.72
2022-12-23T07:31:41.316Z,96415.84
2022-12-23T07:34:08.693Z,96413.59
2022-12-23T07:36:35.684Z,96411.72
2022-12-23T07:39:02.132Z,96418.28
2022-12-23T07:41:28.731Z,96419.94
2022-12-23T07:43:55.179Z,96417.31
2022-12-23T07:46:21.759Z,96417.63
2022-12-23T07:48:48.397Z,96412.09
2022-12-23T07:51:15.163Z,96404.91
2022-12-23T07:53:41.631Z,96407.44
2022-12-23T07:56:08.577Z,96401.13
2022-12-23T07:58:35.076Z,96393.66
2022-12-23T08:01:03.685Z,96404.22
2022-12-23T08:03:30.483Z,96402.28
2022-12-23T08:06:01.688Z,96403.03
2022-12-23T08:08:28.572Z,96401.59
2022-12-23T08:11:04.854Z,96396.63
2022-12-23T08:13:33.723Z,96389.88
2022-12-23T08:16:01.687Z,96380.97
2022-12-23T08:18:31.363Z,96383.38
2022-12-23T08:21:00.920Z,96380.53
2022-12-23T08:23:28.696Z,96371.16
2022-12-23T08:26:03.541Z,96364.72
2022-12-23T08:28:30.695Z,96371.50
2022-12-23T08:31:10.545Z,96375.28
2022-12-23T08:33:38.715Z,96395.63
2022-12-23T08:36:07.012Z,96397.84
2022-12-23T08:38:34.242Z,96401.59
2022-12-23T08:41:01.014Z,96412.97
2022-12-23T08:43:33.631Z,96410.91
2022-12-23T08:46:02.419Z,96398.69
2022-12-23T08:48:29.025Z,96388.47
2022-12-23T08:50:55.684Z,96393.50
2022-12-23T08:53:22.285Z,96410.25
2022-12-23T08:55:48.933Z,96414.63
2022-12-23T08:58:16.328Z,96414.94
2022-12-23T09:00:42.904Z,96405.50
2022-12-23T09:03:09.535Z,96402.63
2022-12-23T09:05:40.958Z,96384.34
2022-12-23T09:08:08.200Z,96394.50
2022-12-23T09:10:40.089Z,96386.91
2022-12-23T09:13:06.560Z,96377.69
2022-12-23T09:15:33.110Z,96386.41
2022-12-23T09:17:59.649Z,96397.53
2022-12-23T09:20:26.099Z,96395.56
2022-12-23T09:22:52.656Z,96396.13
2022-12-23T09:25:19.137Z,96402.53
2022-12-23T09:27:45.654Z,96394.19
2022-12-23T09:30:12.638Z,96394.66
2022-12-23T09:32:39.157Z,96416.75
2022-12-23T09:35:06.109Z,96401.75
2022-12-23T09:37:32.671Z,96391.41
2022-12-23T09:39:59.092Z,96390.91
2022-12-23T09:43:10.815Z,96403.16
2022-12-23T09:45:50.662Z,96391.16
2022-12-23T09:48:26.633Z,96398.19
2022-12-23T09:50:53.785Z,96390.78
2022-12-23T09:53:22.621Z,96389.19
2022-12-23T09:56:02.186Z,96390.88
2022-12-23T09:58:46.995Z,96376.19
2022-12-23T10:01:22.468Z,96373.91
2022-12-23T10:04:07.119Z,96388.00
2022-12-23T10:06:37.096Z,96377.50
2022-12-23T10:09:07.063Z,96362.03
2022-12-23T10:11:42.275Z,96353.13
2022-12-23T10:14:20.353Z,96346.13
2022-12-23T10:16:54.603Z,96341.97
2022-12-23T10:19:31.179Z,96325.72
2022-12-23T10:22:10.282Z,96311.22
2022-12-23T10:24:40.861Z,96322.88
2022-12-23T10:27:40.879Z,96321.03
2022-12-23T10:30:42.641Z,96331.09
2022-12-23T10:33:09.623Z,96345.78
2022-12-23T10:36:04.393Z,96343.22
2022-12-23T10:38:51.229Z,96339.25
2022-12-23T10:41:25.309Z,96351.31
2022-12-23T10:44:16.670Z,96349.53
2022-12-23T10:47:04.419Z,96338.47
2022-12-23T10:50:08.591Z,96340.06
2022-12-23T10:52:39.584Z,96333.97
2022-12-23T10:55:06.417Z,96324.78
2022-12-23T10:57:32.990Z,96318.25
2022-12-23T10:59:59.504Z,96319.59
2022-12-23T11:02:37.885Z,96318.59
2022-12-23T11:05:14.805Z,96324.44
2022-12-23T11:07:46.516Z,96336.31
2022-12-23T11:10:17.870Z,96342.13
2022-12-23T11:12:47.762Z,96347.16
2022-12-23T11:15:38.815Z,96334.50
2022-12-23T11:18:14.181Z,96315.88
2022-12-23T11:20:42.909Z,96309.59
2022-12-23T11:23:30.326Z,96314.88
2022-12-23T11:26:20.006Z,96306.66
2022-12-23T11:28:53.212Z,96285.97
2022-12-23T11:31:26.880Z,96290.94
2022-12-23T11:33:59.892Z,96270.44
2022-12-23T11:36:28.878Z,96241.78
2022-12-23T11:39:16.929Z,96241.78
2022-12-23T11:41:49.600Z,96226.00
2022-12-23T11:44:30.852Z,96226.81
2022-12-23T11:46:58.008Z,96213.91
2022-12-23T11:49:27.423Z,96211.03
2022-12-23T11:52:05.905Z,96205.50
2022-12-23T11:54:33.405Z,96199.69
2022-12-23T11:57:03.307Z,96200.00
2022-12-23T11:59:35.014Z,96199.16
2022-12-23T12:02:05.902Z,96193.66
2022-12-23T12:04:35.611Z,96196.81
2022-12-23T12:07:03.710Z,96189.94
2022-12-23T12:09:32.338Z,96190.25
2022-12-23T12:12:19.244Z,96195.53
2022-12-23T12:14:59.293Z,96195.28
2022-12-23T12:17:44.414Z,96200.28
2022-12-23T12:20:18.221Z,96207.66
2022-12-23T12:22:50.032Z,96215.31
2022-12-23T12:25:21.419Z,96211.38
2022-12-23T12:27:54.997Z,96212.69
2022-12-23T12:30:22.011Z,96218.44
2022-12-23T12:33:19.731Z,96225.59
2022-12-23T12:35:57.786Z,96231.63
2022-12-23T12:38:34.470Z,96230.06
2022-12-23T12:41:13.945Z,96233.78
2022-12-23T12:44:00.846Z,96240.09
2022-12-23T12:46:44.610Z,96241.16
2022-12-23T12:49:33.982Z,96248.28
2022-12-23T12:52:13.176Z,96256.69
2022-12-23T12:54:54.776Z,96264.59
2022-12-23T12:57:23.082Z,96276.19
2022-12-23T12:59:56.384Z,96283.03
2022-12-23T13:02:52.979Z,96285.97
2022-12-23T13:05:54.873Z,96289.59
2022-12-23T13:08:51.881Z,96281.72
2022-12-23T13:11:28.705Z,96276.44
2022-12-23T13:14:21.359Z,96277.25
2022-12-23T13:16:50.579Z,96284.88
2022-12-23T13:19:32.347Z,96259.06
2022-12-23T13:22:11.377Z,96253.25
2022-12-23T13:24:53.034Z,96254.31
2022-12-23T13:27:37.718Z,96247.72
2022-12-23T13:30:13.206Z,96245.63
2022-12-23T13:32:48.409Z,96232.44
2022-12-23T13:35:36.997Z,96230.59
2022-12-23T13:38:28.277Z,96236.41
2022-12-23T13:41:05.745Z,96231.66
2022-12-23T13:44:07.236Z,96232.69
2022-12-23T13:46:43.389Z,96224.00
2022-12-23T13:49:44.257Z,96223.22
2022-12-23T13:52:16.130Z,96214.78
2022-12-23T13:55:01.367Z,96197.69
2022-12-23T13:58:05.398Z,96206.59
2022-12-23T14:00:32.990Z,96207.66
2022-12-23T14:03:02.477Z,96214.78
2022-12-23T14:05:47.695Z,96226.88
2022-12-23T14:08:18.871Z,96224.78
2022-12-23T14:11:02.957Z,96227.97
2022-12-23T14:13:46.138Z,96228.19
2022-12-23T14:16:37.019Z,96222.69
2022-12-23T14:19:18.747Z,96220.56
2022-12-23T14:22:13.456Z,96216.09
2022-12-23T14:25:29.234Z,96210.28
2022-12-23T14:28:33.103Z,96204.22
2022-12-23T14:30:59.732Z,96209.50
2022-12-23T14:33:30.180Z,96216.63
2022-12-23T14:36:16.853Z,96212.69
2022-12-23T14:39:11.985Z,96202.91
2022-12-23T14:41:49.017Z,96216.84
2022-12-23T14:44:38.444Z,96216.84
2022-12-23T14:47:29.907Z,96218.41
2022-12-23T14:49:56.548Z,96225.28
2022-12-23T14:52:38.070Z,96213.63
2022-12-23T14:55:32.636Z,96216.56
2022-12-23T14:58:18.004Z,96221.81
2022-12-23T15:00:49.535Z,96219.44
2022-12-23T15:03:19.478Z,96218.63
2022-12-23T15:05:46.708Z,96218.38
2022-12-23T15:08:31.311Z,96220.44
2022-12-23T15:11:04.058Z,96207.53
2022-12-23T15:13:32.359Z,96221.00
2022-12-23T15:16:01.681Z,96216.53
2022-12-23T15:18:29.003Z,96209.41
2022-12-23T15:21:01.104Z,96218.09
2022-12-23T15:23:27.680Z,96226.78
2022-12-23T15:25:58.014Z,96236.50
2022-12-23T15:28:35.024Z,96246.22
2022-12-23T15:31:02.013Z,96256.72
2022-12-23T15:34:02.255Z,96248.22
2022-12-23T15:36:27.864Z,96252.19
2022-12-23T15:38:54.412Z,96268.25
2022-12-23T15:41:22.431Z,96273.69
2022-12-23T15:43:49.108Z,96269.28
2022-12-23T15:46:29.697Z,96269.25
2022-12-23T15:48:59.241Z,96270.00
2022-12-23T15:52:06.372Z,96273.31
2022-12-23T15:55:00.112Z,96265.75
2022-12-23T15:57:29.428Z,96272.59
2022-12-23T15:59:58.482Z,96260.22
2022-12-23T16:05:37.657Z,96247.28
2022-12-23T16:08:13.362Z,96241.75
2022-12-23T16:10:40.769Z,96247.53
2022-12-23T16:13:17.541Z,96262.75
2022-12-23T16:15:44.925Z,96244.75
2022-12-23T16:18:24.143Z,96248.78
2022-12-23T16:20:57.593Z,96240.16
2022-12-23T16:23:28.693Z,96235.97
2022-12-23T16:25:55.079Z,96239.88
2022-12-23T16:28:26.423Z,96255.13
2022-12-23T16:30:55.229Z,96257.38
2022-12-23T16:33:51.468Z,96245.31
2022-12-23T16:36:26.868Z,96256.78
2022-12-23T16:39:01.017Z,96236.19
2022-12-23T16:41:27.529Z,96228.81
2022-12-23T16:43:53.911Z,96217.03
2022-12-23T16:46:22.496Z,96222.81
2022-12-23T16:48:55.878Z,96228.78
2022-12-23T16:51:23.451Z,96241.50
2022-12-23T16:53:52.449Z,96246.22
2022-12-23T16:56:20.764Z,96231.25
2022-12-23T16:58:47.965Z,96231.59
2022-12-23T17:01:24.858Z,96246.59
2022-12-23T17:03:52.282Z,96245.59
2022-12-23T17:06:19.800Z,96278.25
2022-12-23T17:08:46.604Z,96295.72
2022-12-23T17:11:23.368Z,96292.19
2022-12-23T17:13:50.251Z,96293.19
2022-12-23T17:16:19.978Z,96310.56
2022-12-23T17:18:55.747Z,96314.94
2022-12-23T17:21:29.402Z,96326.22
2022-12-23T17:24:03.442Z,96331.47
2022-12-23T17:26:30.105Z,96318.41
2022-12-23T17:28:56.506Z,96336.19
2022-12-23T17:31:27.019Z,96331.09
2022-12-23T17:33:54.292Z,96334.22
2022-12-23T17:36:20.954Z,96339.78
2022-12-23T17:38:47.421Z,96338.94
2022-12-23T17:41:24.439Z,96340.19
2022-12-23T17:43:50.918Z,96343.19
2022-12-23T17:46:17.504Z,96327.78
2022-12-23T17:48:46.843Z,96328.66
2022-12-23T17:51:18.159Z,96336.47
2022-12-23T17:53:46.817Z,96335.50
2022-12-23T17:56:15.884Z,96318.38
2022-12-23T17:58:42.995Z,96308.09
2022-12-23T18:01:19.219Z,96297.88
2022-12-23T18:03:45.861Z,96306.88
2022-12-23T18:06:14.375Z,96308.16
2022-12-23T18:08:41.261Z,96296.44
2022-12-23T18:11:09.431Z,96286.09
2022-12-23T18:13:36.324Z,96265.88
2022-12-23T18:16:02.874Z,96256.94
2022-12-23T18:18:41.759Z,96260.19
2022-12-23T18:21:17.122Z,96266.94
2022-12-23T18:23:43.499Z,96277.31
2022-12-23T18:26:15.039Z,96265.44
2022-12-23T18:28:42.766Z,96270.56
2022-12-23T18:31:21.055Z,96287.44
2022-12-23T18:33:48.144Z,96317.56
2022-12-23T18:36:22.765Z,96327.13
2022-12-23T18:38:49.515Z,96317.28
2022-12-23T18:41:15.988Z,96324.81
2022-12-23T18:43:42.492Z,96330.72
2022-12-23T18:46:08.883Z,96339.00
2022-12-23T18:48:35.382Z,96336.78
2022-12-23T18:51:01.836Z,96334.41
2022-12-23T18:53:28.375Z,96330.59
2022-12-23T18:55:55.174Z,96326.72
2022-12-23T18:58:22.603Z,96330.84
2022-12-23T19:00:51.272Z,96317.81
2022-12-23T19:03:25.017Z,96310.69
2022-12-23T19:05:53.164Z,96315.06
2022-12-23T19:08:26.180Z,96311.78
2022-12-23T19:10:54.345Z,96292.94
2022-12-23T19:13:20.835Z,96287.00
2022-12-23T19:15:47.257Z,96283.44
2022-12-23T19:18:16.115Z,96288.88
2022-12-23T19:20:47.600Z,96274.19
2022-12-23T19:23:14.826Z,96275.81
2022-12-23T19:25:52.476Z,96283.00
2022-12-23T19:28:21.618Z,96289.94
2022-12-23T19:30:48.579Z,96310.19
2022-12-23T19:33:15.189Z,96325.97
2022-12-23T19:35:42.693Z,96331.53
2022-12-23T19:38:09.153Z,96329.09
2022-12-23T19:40:35.758Z,96343.69
2022-12-23T19:43:02.901Z,96342.63
2022-12-23T19:45:29.394Z,96340.47
2022-12-23T19:47:55.870Z,96349.28
2022-12-23T19:50:22.466Z,96335.94
2022-12-23T19:52:50.081Z,96350.47
2022-12-23T19:55:16.570Z,96349.56
2022-12-23T19:57:43.211Z,96366.50
2022-12-23T20:00:10.154Z,96367.59
2022-12-23T20:02:36.777Z,96364.94
2022-12-23T20:05:03.980Z,96372.38
2022-12-23T20:07:30.597Z,96389.91
2022-12-23T20:09:58.749Z,96388.84
2022-12-23T20:12:26.394Z,96397.13
2022-12-23T20:14:52.792Z,96384.06
2022-12-23T20:17:19.178Z,96380.63
2022-12-23T20:19:46.272Z,96402.31
2022-12-23T20:22:13.138Z,96393.28
2022-12-23T20:24:39.602Z,96411.06
2022-12-23T20:27:10.910Z,96406.13
2022-12-23T20:29:38.406Z,96398.19
2022-12-23T20:32:05.094Z,96393.66
2022-12-23T20:34:38.416Z,96405.72
2022-12-23T20:37:05.967Z,96406.91
2022-12-23T20:39:32.355Z,96412.06
2022-12-23T20:41:58.985Z,96404.63
2022-12-23T20:44:35.208Z,96407.31
2022-12-23T20:47:02.886Z,96405.97
2022-12-23T20:49:29.748Z,96419.00
2022-12-23T20:51:56.197Z,96426.78
2022-12-23T20:54:27.880Z,96428.63
2022-12-23T20:56:58.603Z,96425.97
2022-12-23T20:59:25.308Z,96435.50
2022-12-23T21:01:52.223Z,96431.16
2022-12-23T21:04:18.991Z,96441.97
2022-12-23T21:06:45.680Z,96417.09
2022-12-23T21:09:14.772Z,96413.28
2022-12-23T21:11:43.727Z,96402.47
2022-12-23T21:14:11.126Z,96413.91
2022-12-23T21:16:38.627Z,96394.94
2022-12-23T21:19:07.078Z,96387.78
2022-12-23T21:21:33.607Z,96371.16
2022-12-23T21:24:04.040Z,96363.38
2022-12-23T21:26:32.315Z,96365.69
2022-12-23T21:29:00.474Z,96350.44
2022-12-23T21:31:28.648Z,96339.56
2022-12-23T21:33:55.140Z,96342.75
2022-12-23T21:36:24.185Z,96350.94
2022-12-23T21:38:50.868Z,96332.44
2022-12-23T21:41:20.473Z,96322.25
2022-12-23T21:43:47.852Z,96330.69
2022-12-23T21:46:19.785Z,96337.13
2022-12-23T21:48:47.322Z,96317.09
2022-12-23T21:51:24.256Z,96298.09
2022-12-23T21:53:54.002Z,96300.31
2022-12-23T21:56:24.380Z,96306.03
2022-12-23T21:58:58.271Z,96304.50
2022-12-23T22:01:25.554Z,96289.84
2022-12-23T22:03:53.177Z,96302.38
2022-12-23T22:06:29.749Z,96296.47
2022-12-23T22:08:57.353Z,96310.97
2022-12-23T22:11:26.118Z,96301.63
2022-12-23T22:13:53.388Z,96298.44
2022-12-23T22:16:22.394Z,96305.34
2022-12-23T22:18:50.038Z,96308.44
2022-12-23T22:21:19.044Z,96303.66
2022-12-23T22:23:46.650Z,96304.84
2022-12-23T22:26:18.839Z,96283.81
2022-12-23T22:28:50.558Z,96261.56
2022-12-23T22:31:23.851Z,96262.31
2022-12-23T22:33:50.244Z,96257.16
2022-12-23T22:36:17.068Z,96249.31
2022-12-23T22:38:44.304Z,96285.09
2022-12-23T22:41:10.952Z,96261.63
2022-12-23T22:43:37.564Z,96245.25
2022-12-23T22:46:05.055Z,96274.78
2022-12-23T22:48:31.785Z,96309.41
2022-12-23T22:51:05.582Z,96292.63
2022-12-23T22:53:32.834Z,96313.22
2022-12-23T22:56:00.200Z,96318.59
2022-12-23T22:58:28.047Z,96312.09
2022-12-23T23:00:54.881Z,96305.34
2022-12-23T23:03:21.596Z,96334.00
2022-12-23T23:06:03.246Z,96312.41
2022-12-23T23:08:30.632Z,96325.34
2022-12-23T23:10:59.306Z,96331.16
2022-12-23T23:13:29.096Z,96340.94
2022-12-23T23:15:56.429Z,96335.81
2022-12-23T23:18:23.925Z,96335.59
2022-12-23T23:20:50.412Z,96326.78
2022-12-23T23:23:17.144Z,96322.44
2022-12-23T23:25:44.170Z,96301.44
2022-12-23T23:28:11.725Z,96279.53
2022-12-23T23:30:39.104Z,96287.97
2022-12-23T23:33:07.317Z,96257.59
2022-12-23T23:35:34.673Z,96273.28
2022-12-23T23:38:01.291Z,96279.63
2022-12-23T23:40:27.877Z,96281.97
2022-12-23T23:42:54.531Z,96254.00
2022-12-23T23:45:20.977Z,96267.78
2022-12-23T23:47:47.416Z,96267.03
2022-12-23T23:50:13.876Z,96258.78
2022-12-23T23:52:40.233Z,96259.00
2022-12-23T23:55:07.393Z,96290.50
2022-12-23T23:57:33.981Z,96287.81
